createdAt,value
2023-04-27T00:03:49.285Z,98378.69
2023-04-27T00:08:53.031Z,98377.81
2023-04-27T00:13:57.412Z,98384.88
2023-04-27T00:19:02.619Z,98388.25
2023-04-27T00:24:06.864Z,98383.91
2023-04-27T00:29:10.488Z,98384.84
2023-04-27T00:34:17.600Z,98378.84
2023-04-27T00:39:24.820Z,98379.75
2023-04-27T00:44:29.343Z,98372.03
2023-04-27T00:49:34.604Z,98375.56
2023-04-27T00:54:38.593Z,98379.00
2023-04-27T00:59:42.291Z,98378.16
2023-04-27T01:04:47.609Z,98388.56
2023-04-27T01:09:51.492Z,98396.34
2023-04-27T01:14:55.240Z,98393.78
2023-04-27T01:20:00.495Z,98400.72
2023-04-27T01:25:06.611Z,98405.91
2023-04-27T01:30:10.445Z,98417.16
2023-04-27T01:35:14.201Z,98415.41
2023-04-27T01:40:19.564Z,98431.84
2023-04-27T01:45:24.311Z,98419.75
2023-04-27T01:50:28.265Z,98430.09
2023-04-27T01:55:33.364Z,98408.47
2023-04-27T02:00:38.655Z,98413.66
2023-04-27T02:05:43.559Z,98417.13
2023-04-27T02:10:48.768Z,98424.88
2023-04-27T02:15:56.225Z,98431.81
2023-04-27T02:21:00.214Z,98426.66
2023-04-27T02:26:05.445Z,98437.00
2023-04-27T02:31:09.250Z,98445.66
2023-04-27T02:36:12.864Z,98444.81
2023-04-27T02:41:17.993Z,98440.50
2023-04-27T02:46:21.889Z,98446.50
2023-04-27T02:51:25.745Z,98454.31
2023-04-27T02:56:31.310Z,98466.41
2023-04-27T03:01:35.302Z,98461.22
2023-04-27T03:06:39.150Z,98478.47
2023-04-27T03:11:44.346Z,98475.03
2023-04-27T03:16:48.276Z,98489.72
2023-04-27T03:21:52.131Z,98498.28
2023-04-27T03:26:57.361Z,98501.72
2023-04-27T03:32:01.188Z,98515.47
2023-04-27T03:37:04.991Z,98520.69
2023-04-27T03:42:10.132Z,98536.28
2023-04-27T03:47:13.871Z,98541.47
2023-04-27T03:52:18.736Z,98532.88
2023-04-27T03:57:24.551Z,98533.72
2023-04-27T04:02:28.435Z,98531.16
2023-04-27T04:07:32.268Z,98537.25
2023-04-27T04:12:37.839Z,98532.03
2023-04-27T04:17:41.670Z,98532.91
2023-04-27T04:22:45.531Z,98524.25
2023-04-27T04:27:51.177Z,98529.47
2023-04-27T04:32:55.466Z,98523.44
2023-04-27T04:37:59.213Z,98538.97
2023-04-27T04:43:04.742Z,98542.41
2023-04-27T04:48:08.915Z,98543.31
2023-04-27T04:53:12.728Z,98546.78
2023-04-27T04:58:18.286Z,98545.03
2023-04-27T05:03:22.175Z,98551.09
2023-04-27T05:08:25.930Z,98552.81
2023-04-27T05:13:31.305Z,98551.94
2023-04-27T05:18:35.211Z,98541.50
2023-04-27T05:23:39.075Z,98552.69
2023-04-27T05:28:44.543Z,98557.91
2023-04-27T05:33:48.263Z,98558.84
2023-04-27T05:38:52.051Z,98556.19
2023-04-27T05:43:57.433Z,98550.97
2023-04-27T05:49:01.776Z,98543.94
2023-04-27T05:54:05.854Z,98549.03
2023-04-27T05:59:11.228Z,98544.72
2023-04-27T06:04:15.327Z,98554.84
2023-04-27T06:09:19.220Z,98555.50
2023-04-27T06:14:24.559Z,98550.97
2023-04-27T06:19:28.178Z,98549.84
2023-04-27T06:24:31.877Z,98551.00
2023-04-27T06:29:37.068Z,98545.97
2023-04-27T06:34:40.798Z,98551.75
2023-04-27T06:39:46.806Z,98548.81
2023-04-27T06:44:55.333Z,98541.84
2023-04-27T06:49:59.290Z,98547.06
2023-04-27T06:55:03.476Z,98551.53
2023-04-27T07:00:13.628Z,98562.38
2023-04-27T07:05:17.575Z,98542.06
2023-04-27T07:10:21.456Z,98549.41
2023-04-27T07:15:27.197Z,98537.41
2023-04-27T07:20:31.287Z,98549.78
2023-04-27T07:25:35.955Z,98540.06
2023-04-27T07:30:42.055Z,98559.06
2023-04-27T07:35:45.860Z,98572.16
2023-04-27T07:40:49.920Z,98574.66
2023-04-27T07:45:55.817Z,98572.59
2023-04-27T07:51:00.143Z,98584.78
2023-04-27T07:56:04.410Z,98591.69
2023-04-27T08:01:09.707Z,98590.75
2023-04-27T08:06:13.971Z,98587.31
2023-04-27T08:11:18.187Z,98587.03
2023-04-27T08:16:23.628Z,98594.63
2023-04-27T08:21:28.788Z,98603.75
2023-04-27T08:26:32.849Z,98595.94
2023-04-27T08:31:38.230Z,98597.00
2023-04-27T08:36:42.183Z,98596.25
2023-04-27T08:41:46.540Z,98608.56
2023-04-27T08:46:52.719Z,98602.75
2023-04-27T08:51:57.165Z,98605.06
2023-04-27T08:57:01.182Z,98603.78
2023-04-27T09:02:07.388Z,98591.06
2023-04-27T09:07:15.692Z,98596.25
2023-04-27T09:12:21.217Z,98592.19
2023-04-27T09:17:28.798Z,98588.81
2023-04-27T09:22:32.754Z,98592.75
2023-04-27T09:27:36.658Z,98598.41
2023-04-27T09:32:46.888Z,98593.75
2023-04-27T09:37:56.474Z,98593.81
2023-04-27T09:43:02.946Z,98596.72
2023-04-27T09:48:09.080Z,98586.06
2023-04-27T09:53:14.264Z,98585.72
2023-04-27T09:58:45.218Z,98585.56
2023-04-27T10:04:04.029Z,98575.13
2023-04-27T10:09:09.135Z,98584.66
2023-04-27T10:14:19.105Z,98576.78
2023-04-27T10:19:25.394Z,98587.13
2023-04-27T10:24:40.397Z,98578.34
2023-04-27T10:29:46.275Z,98594.78
2023-04-27T10:34:52.812Z,98586.78
2023-04-27T10:40:06.681Z,98585.25
2023-04-27T10:45:12.462Z,98578.81
2023-04-27T10:50:18.823Z,98582.69
2023-04-27T10:55:25.298Z,98569.44
2023-04-27T11:00:30.694Z,98577.78
2023-04-27T11:05:36.417Z,98575.16
2023-04-27T11:10:41.857Z,98570.28
2023-04-27T11:15:47.613Z,98587.31
2023-04-27T11:20:55.137Z,98587.75
2023-04-27T11:25:59.736Z,98584.31
2023-04-27T11:31:04.698Z,98580.81
2023-04-27T11:36:19.802Z,98563.81
2023-04-27T11:41:24.498Z,98570.78
2023-04-27T11:46:28.662Z,98572.63
2023-04-27T11:51:34.822Z,98568.19
2023-04-27T11:56:40.885Z,98569.00
2023-04-27T12:01:44.984Z,98572.91
2023-04-27T12:06:50.327Z,98561.31
2023-04-27T12:11:55.005Z,98560.16
2023-04-27T12:16:59.205Z,98569.09
2023-04-27T12:22:04.954Z,98566.78
2023-04-27T12:27:08.840Z,98574.94
2023-04-27T12:32:12.682Z,98578.41
2023-04-27T12:37:17.993Z,98574.34
2023-04-27T12:42:24.668Z,98578.50
2023-04-27T12:47:49.750Z,98586.47
2023-04-27T12:52:55.212Z,98590.78
2023-04-27T12:57:59.133Z,98580.88
2023-04-27T13:03:03.338Z,98585.72
2023-04-27T13:08:09.266Z,98594.63
2023-04-27T13:13:13.524Z,98592.97
2023-04-27T13:18:17.518Z,98603.00
2023-04-27T13:23:22.869Z,98581.75
2023-04-27T13:28:26.615Z,98589.75
2023-04-27T13:33:30.731Z,98607.53
2023-04-27T13:38:36.373Z,98611.50
2023-04-27T13:43:40.470Z,98625.13
2023-04-27T13:48:44.558Z,98617.09
2023-04-27T13:53:49.809Z,98625.41
2023-04-27T13:58:53.536Z,98628.59
2023-04-27T14:03:57.506Z,98631.44
2023-04-27T14:09:02.775Z,98628.06
2023-04-27T14:14:06.881Z,98633.16
2023-04-27T14:19:10.769Z,98630.63
2023-04-27T14:24:15.991Z,98631.59
2023-04-27T14:29:20.158Z,98634.53
2023-04-27T14:34:24.563Z,98640.28
2023-04-27T14:39:29.960Z,98636.88
2023-04-27T14:44:35.366Z,98642.13
2023-04-27T14:49:39.164Z,98638.63
2023-04-27T14:54:44.617Z,98640.53
2023-04-27T14:59:49.545Z,98633.34
2023-04-27T15:04:53.635Z,98635.19
2023-04-27T15:09:59.010Z,98634.00
2023-04-27T15:15:02.811Z,98637.56
2023-04-27T15:20:10.996Z,98645.31
2023-04-27T15:25:16.279Z,98636.25
2023-04-27T15:30:20.177Z,98648.84
2023-04-27T15:35:24.136Z,98655.03
2023-04-27T15:40:29.291Z,98655.88
2023-04-27T15:45:33.206Z,98669.91
2023-04-27T15:50:37.135Z,98694.19
2023-04-27T15:55:42.530Z,98686.13
2023-04-27T16:00:46.453Z,98705.38
2023-04-27T16:05:51.517Z,98709.06
2023-04-27T16:10:56.728Z,98711.03
2023-04-27T16:16:00.658Z,98724.06
2023-04-27T16:21:04.951Z,98721.47
2023-04-27T16:26:10.264Z,98732.88
2023-04-27T16:31:14.361Z,98729.53
2023-04-27T16:36:18.127Z,98731.34
2023-04-27T16:41:24.565Z,98750.47
2023-04-27T16:46:28.597Z,98744.75
2023-04-27T16:51:32.652Z,98745.78
2023-04-27T16:56:38.124Z,98755.63
2023-04-27T17:01:42.409Z,98761.88
2023-04-27T17:06:48.776Z,98769.00
2023-04-27T17:11:53.954Z,98774.25
2023-04-27T17:16:57.585Z,98781.38
2023-04-27T17:22:01.270Z,98784.06
2023-04-27T17:27:07.147Z,98791.06
2023-04-27T17:32:11.283Z,98802.44
2023-04-27T17:37:15.858Z,98798.13
2023-04-27T17:42:22.338Z,98811.16
2023-04-27T17:47:27.079Z,98827.75
2023-04-27T17:52:31.203Z,98837.31
2023-04-27T17:57:36.430Z,98839.88
2023-04-27T18:02:42.579Z,98848.63
2023-04-27T18:07:47.864Z,98854.66
2023-04-27T18:12:53.320Z,98855.53
2023-04-27T18:17:57.173Z,98865.09
2023-04-27T18:23:01.119Z,98867.69
2023-04-27T18:28:06.557Z,98878.16
2023-04-27T18:33:10.391Z,98885.97
2023-04-27T18:38:14.143Z,98896.41
2023-04-27T18:43:19.255Z,98896.47
2023-04-27T18:48:22.984Z,98904.28
2023-04-27T18:53:28.268Z,98908.59
2023-04-27T18:58:33.680Z,98910.34
2023-04-27T19:03:37.660Z,98907.78
2023-04-27T19:08:41.518Z,98919.91
2023-04-27T19:13:46.686Z,98919.88
2023-04-27T19:18:50.493Z,98925.06
2023-04-27T19:23:54.221Z,98925.94
2023-04-27T19:28:59.377Z,98926.81
2023-04-27T19:34:18.347Z,98926.84
2023-04-27T19:39:22.104Z,98929.44
2023-04-27T19:44:28.574Z,98926.81
2023-04-27T19:49:33.767Z,98929.44
2023-04-27T19:54:38.492Z,98925.13
2023-04-27T19:59:43.654Z,98930.28
2023-04-27T20:04:47.655Z,98939.84
2023-04-27T20:09:51.613Z,98931.16
2023-04-27T20:14:58.062Z,98936.34
2023-04-27T20:20:01.788Z,98942.38
2023-04-27T20:25:08.483Z,98933.72
2023-04-27T20:30:14.148Z,98936.31
2023-04-27T20:35:17.890Z,98942.28
2023-04-27T20:40:21.702Z,98951.78
2023-04-27T20:45:26.907Z,98948.41
2023-04-27T20:50:31.157Z,98956.16
2023-04-27T20:55:34.946Z,98968.25
2023-04-27T21:00:40.187Z,98966.47
2023-04-27T21:05:44.613Z,98979.22
2023-04-27T21:10:48.401Z,98976.69
2023-04-27T21:15:53.633Z,98975.66
2023-04-27T21:20:57.414Z,98995.38
2023-04-27T21:26:01.195Z,99003.13
2023-04-27T21:31:06.714Z,99006.66
2023-04-27T21:36:10.889Z,99009.28
2023-04-27T21:41:15.856Z,99015.13
2023-04-27T21:46:21.777Z,99011.66
2023-04-27T21:51:25.533Z,99018.53
2023-04-27T21:56:29.331Z,99015.09
2023-04-27T22:01:34.519Z,99022.88
2023-04-27T22:06:41.552Z,99025.41
2023-04-27T22:11:45.232Z,99023.81
2023-04-27T22:16:50.776Z,99032.31
2023-04-27T22:21:54.792Z,99023.72
2023-04-27T22:26:59.661Z,99021.09
2023-04-27T22:32:05.437Z,99021.13
2023-04-27T22:37:09.357Z,99022.00
2023-04-27T22:42:13.155Z,99024.66
2023-04-27T22:47:18.377Z,99024.53
2023-04-27T22:52:24.699Z,99021.13
2023-04-27T22:57:28.383Z,99022.97
2023-04-27T23:02:34.159Z,99018.50
2023-04-27T23:07:38.168Z,99004.81
2023-04-27T23:12:41.947Z,99000.41
2023-04-27T23:17:47.057Z,98989.38
2023-04-27T23:22:50.995Z,98985.03
2023-04-27T23:27:54.642Z,98995.25
2023-04-27T23:32:59.911Z,99002.06
2023-04-27T23:38:03.622Z,99020.31
2023-04-27T23:43:07.684Z,99019.34
2023-04-27T23:48:12.999Z,99021.88
2023-04-27T23:53:16.780Z,99021.03
2023-04-27T23:58:20.742Z,99015.72
